sensor_id;sensor_type;location;lat;lon;timestamp;P1;durP1;ratioP1;P2;durP2;ratioP2
12884;SDS011;6510;51.362;7.370;2023-08-07T00:00:27;0.00;;;0.00;;
12884;SDS011;6510;51.362;7.370;2023-08-07T00:02:53;0.00;;;0.00;;
12884;SDS011;6510;51.362;7.370;2023-08-07T00:05:18;0.00;;;0.00;;
12884;SDS011;6510;51.362;7.370;2023-08-07T00:07:44;0.00;;;0.00;;
12884;SDS011;6510;51.362;7.370;2023-08-07T00:10:10;0.00;;;0.00;;
12884;SDS011;6510;51.362;7.370;2023-08-07T00:12:35;0.00;;;0.00;;
12884;SDS011;6510;51.362;7.370;2023-08-07T00:15:01;0.00;;;0.00;;
12884;SDS011;6510;51.362;7.370;2023-08-07T00:17:28;0.00;;;0.00;;
12884;SDS011;6510;51.362;7.370;2023-08-07T00:19:54;0.00;;;0.00;;
12884;SDS011;6510;51.362;7.370;2023-08-07T00:22:19;0.00;;;0.00;;
12884;SDS011;6510;51.362;7.370;2023-08-07T00:24:45;0.00;;;0.00;;
12884;SDS011;6510;51.362;7.370;2023-08-07T00:27:11;0.00;;;0.00;;
12884;SDS011;6510;51.362;7.370;2023-08-07T00:29:37;0.00;;;0.00;;
12884;SDS011;6510;51.362;7.370;2023-08-07T00:32:03;0.00;;;0.00;;
12884;SDS011;6510;51.362;7.370;2023-08-07T00:34:29;0.00;;;0.00;;
12884;SDS011;6510;51.362;7.370;2023-08-07T00:36:55;0.00;;;0.00;;
12884;SDS011;6510;51.362;7.370;2023-08-07T00:39:23;0.00;;;0.00;;
12884;SDS011;6510;51.362;7.370;2023-08-07T00:41:49;0.00;;;0.00;;
12884;SDS011;6510;51.362;7.370;2023-08-07T00:44:14;0.00;;;0.00;;
12884;SDS011;6510;51.362;7.370;2023-08-07T00:46:40;0.00;;;0.00;;
12884;SDS011;6510;51.362;7.370;2023-08-07T00:49:07;0.00;;;0.00;;
12884;SDS011;6510;51.362;7.370;2023-08-07T00:51:36;0.00;;;0.00;;
12884;SDS011;6510;51.362;7.370;2023-08-07T00:54:03;0.00;;;0.00;;
12884;SDS011;6510;51.362;7.370;2023-08-07T00:56:30;0.00;;;0.00;;
12884;SDS011;6510;51.362;7.370;2023-08-07T00:58:57;0.00;;;0.00;;
12884;SDS011;6510;51.362;7.370;2023-08-07T01:01:25;0.00;;;0.00;;
12884;SDS011;6510;51.362;7.370;2023-08-07T01:03:52;0.00;;;0.00;;
12884;SDS011;6510;51.362;7.370;2023-08-07T01:06:17;0.00;;;0.00;;
12884;SDS011;6510;51.362;7.370;2023-08-07T01:08:43;0.00;;;0.00;;
12884;SDS011;6510;51.362;7.370;2023-08-07T01:11:24;0.00;;;0.00;;
12884;SDS011;6510;51.362;7.370;2023-08-07T01:16:52;0.00;;;0.00;;
12884;SDS011;6510;51.362;7.370;2023-08-07T01:19:37;0.00;;;0.00;;
12884;SDS011;6510;51.362;7.370;2023-08-07T01:22:05;0.00;;;0.00;;
12884;SDS011;6510;51.362;7.370;2023-08-07T01:24:35;0.00;;;0.00;;
12884;SDS011;6510;51.362;7.370;2023-08-07T01:35:29;0.00;;;0.00;;
12884;SDS011;6510;51.362;7.370;2023-08-07T01:38:00;0.00;;;0.00;;
12884;SDS011;6510;51.362;7.370;2023-08-07T01:40:27;0.00;;;0.00;;
12884;SDS011;6510;51.362;7.370;2023-08-07T01:42:53;0.00;;;0.00;;
12884;SDS011;6510;51.362;7.370;2023-08-07T01:45:23;0.00;;;0.00;;
12884;SDS011;6510;51.362;7.370;2023-08-07T01:47:49;0.00;;;0.00;;
12884;SDS011;6510;51.362;7.370;2023-08-07T01:50:15;0.00;;;0.00;;
12884;SDS011;6510;51.362;7.370;2023-08-07T01:52:41;0.00;;;0.00;;
12884;SDS011;6510;51.362;7.370;2023-08-07T01:55:09;0.00;;;0.00;;
12884;SDS011;6510;51.362;7.370;2023-08-07T01:57:34;0.00;;;0.00;;
12884;SDS011;6510;51.362;7.370;2023-08-07T02:00:00;0.00;;;0.00;;
12884;SDS011;6510;51.362;7.370;2023-08-07T02:02:25;0.00;;;0.00;;
12884;SDS011;6510;51.362;7.370;2023-08-07T02:04:51;0.00;;;0.00;;
12884;SDS011;6510;51.362;7.370;2023-08-07T02:07:17;0.00;;;0.00;;
12884;SDS011;6510;51.362;7.370;2023-08-07T02:09:42;0.00;;;0.00;;
12884;SDS011;6510;51.362;7.370;2023-08-07T02:12:08;0.00;;;0.00;;
12884;SDS011;6510;51.362;7.370;2023-08-07T02:14:33;0.00;;;0.00;;
12884;SDS011;6510;51.362;7.370;2023-08-07T02:16:59;0.00;;;0.00;;
12884;SDS011;6510;51.362;7.370;2023-08-07T02:19:24;0.00;;;0.00;;
12884;SDS011;6510;51.362;7.370;2023-08-07T02:21:50;0.00;;;0.00;;
12884;SDS011;6510;51.362;7.370;2023-08-07T02:24:16;0.00;;;0.00;;
12884;SDS011;6510;51.362;7.370;2023-08-07T02:26:43;0.00;;;0.00;;
12884;SDS011;6510;51.362;7.370;2023-08-07T02:29:08;0.00;;;0.00;;
12884;SDS011;6510;51.362;7.370;2023-08-07T02:31:34;0.00;;;0.00;;
12884;SDS011;6510;51.362;7.370;2023-08-07T02:33:59;0.00;;;0.00;;
12884;SDS011;6510;51.362;7.370;2023-08-07T02:36:25;0.00;;;0.00;;
12884;SDS011;6510;51.362;7.370;2023-08-07T02:38:51;0.00;;;0.00;;
12884;SDS011;6510;51.362;7.370;2023-08-07T02:41:18;0.00;;;0.00;;
12884;SDS011;6510;51.362;7.370;2023-08-07T02:43:44;0.00;;;0.00;;
12884;SDS011;6510;51.362;7.370;2023-08-07T02:46:09;0.00;;;0.00;;
12884;SDS011;6510;51.362;7.370;2023-08-07T02:48:35;0.00;;;0.00;;
12884;SDS011;6510;51.362;7.370;2023-08-07T02:51:01;0.00;;;0.00;;
12884;SDS011;6510;51.362;7.370;2023-08-07T02:53:26;0.00;;;0.00;;
12884;SDS011;6510;51.362;7.370;2023-08-07T02:55:52;0.00;;;0.00;;
12884;SDS011;6510;51.362;7.370;2023-08-07T02:58:17;0.00;;;0.00;;
12884;SDS011;6510;51.362;7.370;2023-08-07T03:00:43;0.00;;;0.00;;
12884;SDS011;6510;51.362;7.370;2023-08-07T03:03:08;0.00;;;0.00;;
12884;SDS011;6510;51.362;7.370;2023-08-07T03:05:34;0.00;;;0.00;;
12884;SDS011;6510;51.362;7.370;2023-08-07T03:08:00;0.00;;;0.00;;
12884;SDS011;6510;51.362;7.370;2023-08-07T03:10:25;0.00;;;0.00;;
12884;SDS011;6510;51.362;7.370;2023-08-07T03:12:51;0.00;;;0.00;;
12884;SDS011;6510;51.362;7.370;2023-08-07T03:15:17;0.00;;;0.00;;
12884;SDS011;6510;51.362;7.370;2023-08-07T03:17:42;0.00;;;0.00;;
12884;SDS011;6510;51.362;7.370;2023-08-07T03:20:08;0.00;;;0.00;;
12884;SDS011;6510;51.362;7.370;2023-08-07T03:22:34;0.00;;;0.00;;
12884;SDS011;6510;51.362;7.370;2023-08-07T03:25:00;0.00;;;0.00;;
12884;SDS011;6510;51.362;7.370;2023-08-07T03:27:26;0.00;;;0.00;;
12884;SDS011;6510;51.362;7.370;2023-08-07T03:29:53;0.00;;;0.00;;
12884;SDS011;6510;51.362;7.370;2023-08-07T03:32:19;0.00;;;0.00;;
12884;SDS011;6510;51.362;7.370;2023-08-07T03:34:44;0.00;;;0.00;;
12884;SDS011;6510;51.362;7.370;2023-08-07T03:37:10;0.00;;;0.00;;
12884;SDS011;6510;51.362;7.370;2023-08-07T03:39:36;0.00;;;0.00;;
12884;SDS011;6510;51.362;7.370;2023-08-07T03:42:01;0.00;;;0.00;;
12884;SDS011;6510;51.362;7.370;2023-08-07T03:44:27;0.00;;;0.00;;
12884;SDS011;6510;51.362;7.370;2023-08-07T03:46:52;0.00;;;0.00;;
12884;SDS011;6510;51.362;7.370;2023-08-07T03:49:23;0.00;;;0.00;;
12884;SDS011;6510;51.362;7.370;2023-08-07T03:51:49;0.00;;;0.00;;
12884;SDS011;6510;51.362;7.370;2023-08-07T03:54:14;0.00;;;0.00;;
12884;SDS011;6510;51.362;7.370;2023-08-07T03:56:40;0.00;;;0.00;;
12884;SDS011;6510;51.362;7.370;2023-08-07T03:59:06;0.00;;;0.00;;
12884;SDS011;6510;51.362;7.370;2023-08-07T04:01:31;0.00;;;0.00;;
12884;SDS011;6510;51.362;7.370;2023-08-07T04:03:57;0.00;;;0.00;;
12884;SDS011;6510;51.362;7.370;2023-08-07T04:06:23;0.00;;;0.00;;
12884;SDS011;6510;51.362;7.370;2023-08-07T04:08:48;0.00;;;0.00;;
12884;SDS011;6510;51.362;7.370;2023-08-07T04:11:14;0.00;;;0.00;;
12884;SDS011;6510;51.362;7.370;2023-08-07T04:13:39;0.00;;;0.00;;
12884;SDS011;6510;51.362;7.370;2023-08-07T04:16:05;0.00;;;0.00;;
12884;SDS011;6510;51.362;7.370;2023-08-07T04:18:31;0.00;;;0.00;;
12884;SDS011;6510;51.362;7.370;2023-08-07T04:20:58;0.00;;;0.00;;
12884;SDS011;6510;51.362;7.370;2023-08-07T04:23:23;0.00;;;0.00;;
12884;SDS011;6510;51.362;7.370;2023-08-07T04:25:50;0.00;;;0.00;;
12884;SDS011;6510;51.362;7.370;2023-08-07T04:28:17;0.00;;;0.00;;
12884;SDS011;6510;51.362;7.370;2023-08-07T04:30:43;0.00;;;0.00;;
12884;SDS011;6510;51.362;7.370;2023-08-07T04:33:10;0.00;;;0.00;;
12884;SDS011;6510;51.362;7.370;2023-08-07T04:35:36;0.00;;;0.00;;
12884;SDS011;6510;51.362;7.370;2023-08-07T04:38:02;0.00;;;0.00;;
12884;SDS011;6510;51.362;7.370;2023-08-07T04:40:28;0.00;;;0.00;;
12884;SDS011;6510;51.362;7.370;2023-08-07T04:42:55;0.00;;;0.00;;
12884;SDS011;6510;51.362;7.370;2023-08-07T04:45:21;0.00;;;0.00;;
12884;SDS011;6510;51.362;7.370;2023-08-07T04:47:47;0.00;;;0.00;;
12884;SDS011;6510;51.362;7.370;2023-08-07T04:50:12;0.00;;;0.00;;
12884;SDS011;6510;51.362;7.370;2023-08-07T04:52:38;0.00;;;0.00;;
12884;SDS011;6510;51.362;7.370;2023-08-07T04:55:04;0.00;;;0.00;;
12884;SDS011;6510;51.362;7.370;2023-08-07T04:57:30;0.00;;;0.00;;
12884;SDS011;6510;51.362;7.370;2023-08-07T04:59:56;0.00;;;0.00;;
12884;SDS011;6510;51.362;7.370;2023-08-07T05:02:24;0.00;;;0.00;;
12884;SDS011;6510;51.362;7.370;2023-08-07T05:04:50;0.00;;;0.00;;
12884;SDS011;6510;51.362;7.370;2023-08-07T05:07:15;0.00;;;0.00;;
12884;SDS011;6510;51.362;7.370;2023-08-07T05:09:41;0.00;;;0.00;;
12884;SDS011;6510;51.362;7.370;2023-08-07T05:12:06;0.00;;;0.00;;
12884;SDS011;6510;51.362;7.370;2023-08-07T05:14:32;0.00;;;0.00;;
12884;SDS011;6510;51.362;7.370;2023-08-07T05:16:58;0.00;;;0.00;;
12884;SDS011;6510;51.362;7.370;2023-08-07T05:19:27;0.00;;;0.00;;
12884;SDS011;6510;51.362;7.370;2023-08-07T05:21:52;0.00;;;0.00;;
12884;SDS011;6510;51.362;7.370;2023-08-07T05:24:18;0.00;;;0.00;;
12884;SDS011;6510;51.362;7.370;2023-08-07T05:26:44;0.00;;;0.00;;
12884;SDS011;6510;51.362;7.370;2023-08-07T05:29:10;0.00;;;0.00;;
12884;SDS011;6510;51.362;7.370;2023-08-07T05:31:35;0.00;;;0.00;;
12884;SDS011;6510;51.362;7.370;2023-08-07T05:34:02;0.00;;;0.00;;
12884;SDS011;6510;51.362;7.370;2023-08-07T05:36:27;0.00;;;0.00;;
12884;SDS011;6510;51.362;7.370;2023-08-07T05:38:54;0.00;;;0.00;;
12884;SDS011;6510;51.362;7.370;2023-08-07T05:41:20;0.00;;;0.00;;
12884;SDS011;6510;51.362;7.370;2023-08-07T05:43:46;0.00;;;0.00;;
12884;SDS011;6510;51.362;7.370;2023-08-07T05:46:11;0.00;;;0.00;;
12884;SDS011;6510;51.362;7.370;2023-08-07T05:48:37;0.00;;;0.00;;
12884;SDS011;6510;51.362;7.370;2023-08-07T05:51:03;0.00;;;0.00;;
12884;SDS011;6510;51.362;7.370;2023-08-07T05:53:28;0.00;;;0.00;;
12884;SDS011;6510;51.362;7.370;2023-08-07T05:55:54;0.00;;;0.00;;
12884;SDS011;6510;51.362;7.370;2023-08-07T05:58:20;0.00;;;0.00;;
12884;SDS011;6510;51.362;7.370;2023-08-07T06:00:45;0.00;;;0.00;;
12884;SDS011;6510;51.362;7.370;2023-08-07T06:03:11;0.00;;;0.00;;
12884;SDS011;6510;51.362;7.370;2023-08-07T06:05:37;0.00;;;0.00;;
12884;SDS011;6510;51.362;7.370;2023-08-07T06:08:03;0.00;;;0.00;;
12884;SDS011;6510;51.362;7.370;2023-08-07T06:10:29;0.00;;;0.00;;
12884;SDS011;6510;51.362;7.370;2023-08-07T06:12:54;0.00;;;0.00;;
12884;SDS011;6510;51.362;7.370;2023-08-07T06:15:20;0.00;;;0.00;;
12884;SDS011;6510;51.362;7.370;2023-08-07T06:17:45;0.00;;;0.00;;
12884;SDS011;6510;51.362;7.370;2023-08-07T06:20:11;0.00;;;0.00;;
12884;SDS011;6510;51.362;7.370;2023-08-07T06:22:39;0.00;;;0.00;;
12884;SDS011;6510;51.362;7.370;2023-08-07T06:25:05;0.00;;;0.00;;
12884;SDS011;6510;51.362;7.370;2023-08-07T06:27:32;0.00;;;0.00;;
12884;SDS011;6510;51.362;7.370;2023-08-07T06:29:57;0.00;;;0.00;;
12884;SDS011;6510;51.362;7.370;2023-08-07T06:32:24;0.00;;;0.00;;
12884;SDS011;6510;51.362;7.370;2023-08-07T06:34:50;0.00;;;0.00;;
12884;SDS011;6510;51.362;7.370;2023-08-07T06:37:16;0.00;;;0.00;;
12884;SDS011;6510;51.362;7.370;2023-08-07T06:39:41;0.00;;;0.00;;
12884;SDS011;6510;51.362;7.370;2023-08-07T06:42:07;0.00;;;0.00;;
12884;SDS011;6510;51.362;7.370;2023-08-07T06:44:33;0.00;;;0.00;;
12884;SDS011;6510;51.362;7.370;2023-08-07T06:46:58;0.00;;;0.00;;
12884;SDS011;6510;51.362;7.370;2023-08-07T06:49:24;0.00;;;0.00;;
12884;SDS011;6510;51.362;7.370;2023-08-07T06:51:50;0.00;;;0.00;;
12884;SDS011;6510;51.362;7.370;2023-08-07T06:54:15;0.00;;;0.00;;
12884;SDS011;6510;51.362;7.370;2023-08-07T06:56:41;0.00;;;0.00;;
12884;SDS011;6510;51.362;7.370;2023-08-07T06:59:07;0.00;;;0.00;;
12884;SDS011;6510;51.362;7.370;2023-08-07T07:01:33;0.00;;;0.00;;
12884;SDS011;6510;51.362;7.370;2023-08-07T07:03:58;0.00;;;0.00;;
12884;SDS011;6510;51.362;7.370;2023-08-07T07:06:24;0.00;;;0.00;;
12884;SDS011;6510;51.362;7.370;2023-08-07T07:08:51;0.00;;;0.00;;
12884;SDS011;6510;51.362;7.370;2023-08-07T07:11:19;0.00;;;0.00;;
12884;SDS011;6510;51.362;7.370;2023-08-07T07:13:45;0.00;;;0.00;;
12884;SDS011;6510;51.362;7.370;2023-08-07T07:16:11;0.00;;;0.00;;
12884;SDS011;6510;51.362;7.370;2023-08-07T07:18:38;0.00;;;0.00;;
12884;SDS011;6510;51.362;7.370;2023-08-07T07:21:04;0.00;;;0.00;;
12884;SDS011;6510;51.362;7.370;2023-08-07T07:23:29;0.00;;;0.00;;
12884;SDS011;6510;51.362;7.370;2023-08-07T07:25:55;0.00;;;0.00;;
12884;SDS011;6510;51.362;7.370;2023-08-07T07:28:22;0.00;;;0.00;;
12884;SDS011;6510;51.362;7.370;2023-08-07T07:30:49;0.00;;;0.00;;
12884;SDS011;6510;51.362;7.370;2023-08-07T07:33:15;0.00;;;0.00;;
12884;SDS011;6510;51.362;7.370;2023-08-07T07:35:40;0.00;;;0.00;;
12884;SDS011;6510;51.362;7.370;2023-08-07T07:38:07;0.00;;;0.00;;
12884;SDS011;6510;51.362;7.370;2023-08-07T07:40:33;0.00;;;0.00;;
12884;SDS011;6510;51.362;7.370;2023-08-07T07:42:59;0.00;;;0.00;;
12884;SDS011;6510;51.362;7.370;2023-08-07T07:45:25;0.00;;;0.00;;
12884;SDS011;6510;51.362;7.370;2023-08-07T07:47:50;0.00;;;0.00;;
12884;SDS011;6510;51.362;7.370;2023-08-07T07:50:16;0.00;;;0.00;;
12884;SDS011;6510;51.362;7.370;2023-08-07T07:52:42;0.00;;;0.00;;
12884;SDS011;6510;51.362;7.370;2023-08-07T07:55:08;0.00;;;0.00;;
12884;SDS011;6510;51.362;7.370;2023-08-07T07:57:35;0.00;;;0.00;;
12884;SDS011;6510;51.362;7.370;2023-08-07T08:00:00;0.00;;;0.00;;
12884;SDS011;6510;51.362;7.370;2023-08-07T08:02:27;0.00;;;0.00;;
12884;SDS011;6510;51.362;7.370;2023-08-07T08:04:53;0.00;;;0.00;;
12884;SDS011;6510;51.362;7.370;2023-08-07T08:07:18;0.00;;;0.00;;
12884;SDS011;6510;51.362;7.370;2023-08-07T08:09:44;0.00;;;0.00;;
12884;SDS011;6510;51.362;7.370;2023-08-07T08:12:12;0.00;;;0.00;;
12884;SDS011;6510;51.362;7.370;2023-08-07T08:14:37;0.00;;;0.00;;
12884;SDS011;6510;51.362;7.370;2023-08-07T08:17:03;0.00;;;0.00;;
12884;SDS011;6510;51.362;7.370;2023-08-07T08:19:29;0.00;;;0.00;;
12884;SDS011;6510;51.362;7.370;2023-08-07T08:21:55;0.00;;;0.00;;
12884;SDS011;6510;51.362;7.370;2023-08-07T08:26:13;0.00;;;0.00;;
12884;SDS011;6510;51.362;7.370;2023-08-07T08:28:38;0.00;;;0.00;;
12884;SDS011;6510;51.362;7.370;2023-08-07T08:31:04;0.00;;;0.00;;
12884;SDS011;6510;51.362;7.370;2023-08-07T08:33:31;0.00;;;0.00;;
12884;SDS011;6510;51.362;7.370;2023-08-07T08:35:56;0.00;;;0.00;;
12884;SDS011;6510;51.362;7.370;2023-08-07T08:38:22;0.00;;;0.00;;
12884;SDS011;6510;51.362;7.370;2023-08-07T08:40:48;0.00;;;0.00;;
12884;SDS011;6510;51.362;7.370;2023-08-07T08:43:17;0.00;;;0.00;;
12884;SDS011;6510;51.362;7.370;2023-08-07T08:45:43;0.00;;;0.00;;
12884;SDS011;6510;51.362;7.370;2023-08-07T08:48:10;0.00;;;0.00;;
12884;SDS011;6510;51.362;7.370;2023-08-07T08:50:41;0.00;;;0.00;;
12884;SDS011;6510;51.362;7.370;2023-08-07T08:53:08;0.00;;;0.00;;
12884;SDS011;6510;51.362;7.370;2023-08-07T08:55:34;0.00;;;0.00;;
12884;SDS011;6510;51.362;7.370;2023-08-07T08:58:01;0.00;;;0.00;;
12884;SDS011;6510;51.362;7.370;2023-08-07T09:00:28;0.00;;;0.00;;
12884;SDS011;6510;51.362;7.370;2023-08-07T09:02:55;0.00;;;0.00;;
12884;SDS011;6510;51.362;7.370;2023-08-07T09:05:22;0.00;;;0.00;;
12884;SDS011;6510;51.362;7.370;2023-08-07T09:07:48;0.00;;;0.00;;
12884;SDS011;6510;51.362;7.370;2023-08-07T09:10:15;0.00;;;0.00;;
12884;SDS011;6510;51.362;7.370;2023-08-07T09:12:42;0.00;;;0.00;;
12884;SDS011;6510;51.362;7.370;2023-08-07T09:15:16;0.00;;;0.00;;
12884;SDS011;6510;51.362;7.370;2023-08-07T09:17:44;0.00;;;0.00;;
12884;SDS011;6510;51.362;7.370;2023-08-07T09:20:11;0.00;;;0.00;;
12884;SDS011;6510;51.362;7.370;2023-08-07T09:22:38;0.00;;;0.00;;
12884;SDS011;6510;51.362;7.370;2023-08-07T09:25:05;0.00;;;0.00;;
12884;SDS011;6510;51.362;7.370;2023-08-07T09:27:31;0.00;;;0.00;;
12884;SDS011;6510;51.362;7.370;2023-08-07T09:29:56;0.00;;;0.00;;
12884;SDS011;6510;51.362;7.370;2023-08-07T09:32:23;0.00;;;0.00;;
12884;SDS011;6510;51.362;7.370;2023-08-07T09:34:49;0.00;;;0.00;;
12884;SDS011;6510;51.362;7.370;2023-08-07T09:37:16;0.00;;;0.00;;
12884;SDS011;6510;51.362;7.370;2023-08-07T09:39:42;0.00;;;0.00;;
12884;SDS011;6510;51.362;7.370;2023-08-07T09:42:14;0.00;;;0.00;;
12884;SDS011;6510;51.362;7.370;2023-08-07T09:44:41;0.00;;;0.00;;
12884;SDS011;6510;51.362;7.370;2023-08-07T09:47:11;0.00;;;0.00;;
12884;SDS011;6510;51.362;7.370;2023-08-07T09:49:40;0.10;;;0.10;;
12884;SDS011;6510;51.362;7.370;2023-08-07T09:52:08;0.00;;;0.00;;
12884;SDS011;6510;51.362;7.370;2023-08-07T09:54:35;0.07;;;0.07;;
12884;SDS011;6510;51.362;7.370;2023-08-07T09:57:02;0.00;;;0.00;;
12884;SDS011;6510;51.362;7.370;2023-08-07T09:59:28;0.00;;;0.00;;
12884;SDS011;6510;51.362;7.370;2023-08-07T10:01:54;0.00;;;0.00;;
12884;SDS011;6510;51.362;7.370;2023-08-07T10:04:21;0.10;;;0.10;;
12884;SDS011;6510;51.362;7.370;2023-08-07T10:06:47;0.10;;;0.10;;
12884;SDS011;6510;51.362;7.370;2023-08-07T10:09:13;0.00;;;0.00;;
12884;SDS011;6510;51.362;7.370;2023-08-07T10:11:40;0.00;;;0.00;;
12884;SDS011;6510;51.362;7.370;2023-08-07T10:14:07;0.00;;;0.00;;
12884;SDS011;6510;51.362;7.370;2023-08-07T10:16:34;0.00;;;0.00;;
12884;SDS011;6510;51.362;7.370;2023-08-07T10:19:04;0.00;;;0.00;;
12884;SDS011;6510;51.362;7.370;2023-08-07T10:21:38;0.00;;;0.00;;
12884;SDS011;6510;51.362;7.370;2023-08-07T10:24:05;0.00;;;0.00;;
12884;SDS011;6510;51.362;7.370;2023-08-07T10:26:33;0.00;;;0.00;;
12884;SDS011;6510;51.362;7.370;2023-08-07T10:29:03;0.00;;;0.00;;
12884;SDS011;6510;51.362;7.370;2023-08-07T10:31:32;0.00;;;0.00;;
12884;SDS011;6510;51.362;7.370;2023-08-07T10:34:00;0.10;;;0.10;;
12884;SDS011;6510;51.362;7.370;2023-08-07T10:36:33;0.10;;;0.10;;
12884;SDS011;6510;51.362;7.370;2023-08-07T10:39:10;0.10;;;0.10;;
12884;SDS011;6510;51.362;7.370;2023-08-07T10:41:38;0.10;;;0.10;;
12884;SDS011;6510;51.362;7.370;2023-08-07T10:44:05;0.10;;;0.10;;
12884;SDS011;6510;51.362;7.370;2023-08-07T10:46:44;0.10;;;0.10;;
12884;SDS011;6510;51.362;7.370;2023-08-07T10:52:12;0.10;;;0.10;;
12884;SDS011;6510;51.362;7.370;2023-08-07T10:54:49;0.10;;;0.10;;
12884;SDS011;6510;51.362;7.370;2023-08-07T10:57:15;0.10;;;0.10;;
12884;SDS011;6510;51.362;7.370;2023-08-07T11:02:25;0.00;;;0.00;;
12884;SDS011;6510;51.362;7.370;2023-08-07T11:04:52;0.10;;;0.10;;
12884;SDS011;6510;51.362;7.370;2023-08-07T11:09:51;0.10;;;0.10;;
12884;SDS011;6510;51.362;7.370;2023-08-07T11:12:17;0.10;;;0.10;;
12884;SDS011;6510;51.362;7.370;2023-08-07T11:14:43;0.00;;;0.00;;
12884;SDS011;6510;51.362;7.370;2023-08-07T11:17:09;0.10;;;0.10;;
12884;SDS011;6510;51.362;7.370;2023-08-07T11:19:35;0.00;;;0.00;;
12884;SDS011;6510;51.362;7.370;2023-08-07T11:22:01;0.10;;;0.10;;
12884;SDS011;6510;51.362;7.370;2023-08-07T11:24:27;0.07;;;0.07;;
12884;SDS011;6510;51.362;7.370;2023-08-07T11:26:53;0.00;;;0.00;;
12884;SDS011;6510;51.362;7.370;2023-08-07T11:29:21;0.00;;;0.00;;
12884;SDS011;6510;51.362;7.370;2023-08-07T11:31:49;0.00;;;0.00;;
12884;SDS011;6510;51.362;7.370;2023-08-07T11:34:17;0.00;;;0.00;;
12884;SDS011;6510;51.362;7.370;2023-08-07T11:36:43;0.00;;;0.00;;
12884;SDS011;6510;51.362;7.370;2023-08-07T11:39:09;0.00;;;0.00;;
12884;SDS011;6510;51.362;7.370;2023-08-07T11:41:36;0.00;;;0.00;;
12884;SDS011;6510;51.362;7.370;2023-08-07T11:44:01;0.10;;;0.10;;
12884;SDS011;6510;51.362;7.370;2023-08-07T11:46:27;0.10;;;0.10;;
12884;SDS011;6510;51.362;7.370;2023-08-07T11:48:54;0.20;;;0.20;;
12884;SDS011;6510;51.362;7.370;2023-08-07T11:51:21;0.10;;;0.10;;
12884;SDS011;6510;51.362;7.370;2023-08-07T11:53:47;0.10;;;0.10;;
12884;SDS011;6510;51.362;7.370;2023-08-07T11:56:13;0.17;;;0.17;;
12884;SDS011;6510;51.362;7.370;2023-08-07T11:58:40;0.10;;;0.10;;
12884;SDS011;6510;51.362;7.370;2023-08-07T12:01:11;0.10;;;0.10;;
12884;SDS011;6510;51.362;7.370;2023-08-07T12:03:38;0.10;;;0.10;;
12884;SDS011;6510;51.362;7.370;2023-08-07T12:06:07;0.10;;;0.10;;
12884;SDS011;6510;51.362;7.370;2023-08-07T12:08:34;0.10;;;0.10;;
12884;SDS011;6510;51.362;7.370;2023-08-07T12:11:02;0.10;;;0.10;;
12884;SDS011;6510;51.362;7.370;2023-08-07T12:13:29;0.10;;;0.10;;
12884;SDS011;6510;51.362;7.370;2023-08-07T12:15:56;0.00;;;0.00;;
12884;SDS011;6510;51.362;7.370;2023-08-07T12:18:23;0.10;;;0.10;;
12884;SDS011;6510;51.362;7.370;2023-08-07T12:20:51;0.10;;;0.10;;
12884;SDS011;6510;51.362;7.370;2023-08-07T12:23:21;0.10;;;0.10;;
12884;SDS011;6510;51.362;7.370;2023-08-07T12:25:47;0.10;;;0.10;;
12884;SDS011;6510;51.362;7.370;2023-08-07T12:28:13;0.10;;;0.10;;
12884;SDS011;6510;51.362;7.370;2023-08-07T12:30:40;0.20;;;0.20;;
12884;SDS011;6510;51.362;7.370;2023-08-07T12:33:09;0.20;;;0.20;;
12884;SDS011;6510;51.362;7.370;2023-08-07T12:35:35;0.10;;;0.10;;
12884;SDS011;6510;51.362;7.370;2023-08-07T12:38:01;0.20;;;0.20;;
12884;SDS011;6510;51.362;7.370;2023-08-07T12:40:28;0.10;;;0.10;;
12884;SDS011;6510;51.362;7.370;2023-08-07T12:42:55;0.20;;;0.20;;
12884;SDS011;6510;51.362;7.370;2023-08-07T12:45:21;0.15;;;0.15;;
12884;SDS011;6510;51.362;7.370;2023-08-07T12:47:46;0.20;;;0.20;;
12884;SDS011;6510;51.362;7.370;2023-08-07T12:50:12;0.20;;;0.20;;
12884;SDS011;6510;51.362;7.370;2023-08-07T12:52:37;0.20;;;0.20;;
12884;SDS011;6510;51.362;7.370;2023-08-07T12:55:03;0.10;;;0.10;;
12884;SDS011;6510;51.362;7.370;2023-08-07T12:57:30;0.10;;;0.10;;
12884;SDS011;6510;51.362;7.370;2023-08-07T12:59:56;0.20;;;0.20;;
12884;SDS011;6510;51.362;7.370;2023-08-07T13:02:22;0.10;;;0.10;;
12884;SDS011;6510;51.362;7.370;2023-08-07T13:04:48;0.10;;;0.10;;
12884;SDS011;6510;51.362;7.370;2023-08-07T13:07:13;0.13;;;0.13;;
12884;SDS011;6510;51.362;7.370;2023-08-07T13:09:39;0.10;;;0.10;;
12884;SDS011;6510;51.362;7.370;2023-08-07T13:12:04;0.10;;;0.10;;
12884;SDS011;6510;51.362;7.370;2023-08-07T13:14:30;0.10;;;0.10;;
12884;SDS011;6510;51.362;7.370;2023-08-07T13:16:56;0.10;;;0.10;;
12884;SDS011;6510;51.362;7.370;2023-08-07T13:19:21;0.20;;;0.20;;
12884;SDS011;6510;51.362;7.370;2023-08-07T13:21:47;0.10;;;0.10;;
12884;SDS011;6510;51.362;7.370;2023-08-07T13:24:13;0.10;;;0.10;;
12884;SDS011;6510;51.362;7.370;2023-08-07T13:26:39;0.20;;;0.20;;
12884;SDS011;6510;51.362;7.370;2023-08-07T13:29:10;0.10;;;0.10;;
12884;SDS011;6510;51.362;7.370;2023-08-07T13:31:36;0.10;;;0.10;;
12884;SDS011;6510;51.362;7.370;2023-08-07T13:34:01;0.10;;;0.10;;
12884;SDS011;6510;51.362;7.370;2023-08-07T13:36:32;0.17;;;0.17;;
12884;SDS011;6510;51.362;7.370;2023-08-07T13:38:58;0.10;;;0.10;;
12884;SDS011;6510;51.362;7.370;2023-08-07T13:41:25;0.10;;;0.10;;
12884;SDS011;6510;51.362;7.370;2023-08-07T13:43:51;0.10;;;0.10;;
12884;SDS011;6510;51.362;7.370;2023-08-07T13:46:17;0.10;;;0.10;;
12884;SDS011;6510;51.362;7.370;2023-08-07T13:48:43;0.20;;;0.20;;
12884;SDS011;6510;51.362;7.370;2023-08-07T13:51:09;0.20;;;0.20;;
12884;SDS011;6510;51.362;7.370;2023-08-07T13:53:35;0.20;;;0.20;;
12884;SDS011;6510;51.362;7.370;2023-08-07T13:56:01;0.10;;;0.10;;
12884;SDS011;6510;51.362;7.370;2023-08-07T13:58:27;0.20;;;0.20;;
12884;SDS011;6510;51.362;7.370;2023-08-07T14:00:53;0.10;;;0.10;;
12884;SDS011;6510;51.362;7.370;2023-08-07T14:03:18;0.20;;;0.20;;
12884;SDS011;6510;51.362;7.370;2023-08-07T14:05:45;0.20;;;0.20;;
12884;SDS011;6510;51.362;7.370;2023-08-07T14:08:11;0.20;;;0.20;;
12884;SDS011;6510;51.362;7.370;2023-08-07T14:10:36;0.20;;;0.20;;
12884;SDS011;6510;51.362;7.370;2023-08-07T14:13:04;0.20;;;0.20;;
12884;SDS011;6510;51.362;7.370;2023-08-07T14:15:30;0.10;;;0.10;;
12884;SDS011;6510;51.362;7.370;2023-08-07T14:17:56;0.10;;;0.10;;
12884;SDS011;6510;51.362;7.370;2023-08-07T14:20:22;0.10;;;0.10;;
12884;SDS011;6510;51.362;7.370;2023-08-07T14:22:49;0.10;;;0.10;;
12884;SDS011;6510;51.362;7.370;2023-08-07T14:25:15;0.00;;;0.00;;
12884;SDS011;6510;51.362;7.370;2023-08-07T14:27:41;0.10;;;0.10;;
12884;SDS011;6510;51.362;7.370;2023-08-07T14:30:07;0.10;;;0.10;;
12884;SDS011;6510;51.362;7.370;2023-08-07T14:32:33;0.10;;;0.10;;
12884;SDS011;6510;51.362;7.370;2023-08-07T14:34:58;0.10;;;0.10;;
12884;SDS011;6510;51.362;7.370;2023-08-07T14:37:27;0.10;;;0.10;;
12884;SDS011;6510;51.362;7.370;2023-08-07T14:39:53;0.10;;;0.10;;
12884;SDS011;6510;51.362;7.370;2023-08-07T14:42:19;0.10;;;0.10;;
12884;SDS011;6510;51.362;7.370;2023-08-07T14:44:44;0.10;;;0.10;;
12884;SDS011;6510;51.362;7.370;2023-08-07T14:47:10;0.10;;;0.10;;
12884;SDS011;6510;51.362;7.370;2023-08-07T14:49:35;0.17;;;0.17;;
12884;SDS011;6510;51.362;7.370;2023-08-07T14:52:01;0.03;;;0.03;;
12884;SDS011;6510;51.362;7.370;2023-08-07T14:54:27;0.10;;;0.10;;
12884;SDS011;6510;51.362;7.370;2023-08-07T14:56:53;0.10;;;0.10;;
12884;SDS011;6510;51.362;7.370;2023-08-07T14:59:18;0.10;;;0.10;;
12884;SDS011;6510;51.362;7.370;2023-08-07T15:01:44;0.10;;;0.10;;
12884;SDS011;6510;51.362;7.370;2023-08-07T15:04:09;0.10;;;0.10;;
12884;SDS011;6510;51.362;7.370;2023-08-07T15:06:35;0.13;;;0.13;;
12884;SDS011;6510;51.362;7.370;2023-08-07T15:09:01;0.10;;;0.10;;
12884;SDS011;6510;51.362;7.370;2023-08-07T15:11:27;0.00;;;0.00;;
12884;SDS011;6510;51.362;7.370;2023-08-07T15:13:52;0.10;;;0.10;;
12884;SDS011;6510;51.362;7.370;2023-08-07T15:16:18;0.10;;;0.10;;